createdAt,value
2019-03-29T00:00:22.910Z,57.00
2019-03-29T00:01:23.511Z,55.40
2019-03-29T00:02:22.843Z,56.30
2019-03-29T00:03:22.823Z,56.40
2019-03-29T00:04:22.810Z,58.10
2019-03-29T00:05:22.778Z,58.10
2019-03-29T00:06:22.782Z,57.40
2019-03-29T00:07:22.738Z,59.50
2019-03-29T00:08:22.725Z,59.90
2019-03-29T00:09:22.702Z,61.50
2019-03-29T00:10:22.686Z,61.00
2019-03-29T00:11:22.662Z,60.60
2019-03-29T00:12:22.666Z,61.00
2019-03-29T00:13:23.213Z,59.80
2019-03-29T00:14:23.624Z,59.60
2019-03-29T00:15:22.600Z,60.00
2019-03-29T00:16:22.565Z,61.60
2019-03-29T00:17:22.540Z,60.10
2019-03-29T00:18:22.537Z,58.60
2019-03-29T00:19:22.499Z,59.50
2019-03-29T00:20:22.481Z,58.60
2019-03-29T00:21:22.461Z,58.50
2019-03-29T00:22:22.447Z,58.80
2019-03-29T00:23:23.013Z,58.40
2019-03-29T00:24:22.419Z,58.50
2019-03-29T00:27:04.480Z,56.90
2019-03-29T00:28:04.533Z,57.10
2019-03-29T00:29:04.437Z,56.90
2019-03-29T00:30:04.421Z,58.00
2019-03-29T00:31:04.399Z,58.40
2019-03-29T00:32:04.367Z,59.10
2019-03-29T00:33:04.346Z,60.30
2019-03-29T00:34:04.324Z,61.40
2019-03-29T00:35:04.307Z,61.00
2019-03-29T00:36:04.284Z,60.90
2019-03-29T00:37:04.289Z,61.40
2019-03-29T00:38:04.263Z,61.60
2019-03-29T00:39:04.228Z,60.90
2019-03-29T00:40:04.203Z,61.90
2019-03-29T00:41:04.183Z,60.90
2019-03-29T00:42:04.191Z,61.40
2019-03-29T00:43:04.145Z,61.90
2019-03-29T00:44:04.128Z,60.30
2019-03-29T00:45:04.107Z,61.60
2019-03-29T00:46:04.087Z,61.30
2019-03-29T00:47:04.126Z,59.90
2019-03-29T00:48:04.062Z,60.10
2019-03-29T00:49:04.027Z,58.50
2019-03-29T00:50:04.029Z,59.40
2019-03-29T00:51:03.986Z,60.50
2019-03-29T00:52:03.969Z,60.50
2019-03-29T00:53:03.946Z,60.10
2019-03-29T00:54:03.928Z,59.10
2019-03-29T00:55:03.908Z,60.70
2019-03-29T00:56:03.897Z,59.50
2019-03-29T00:57:04.877Z,59.10
2019-03-29T00:58:03.843Z,59.70
2019-03-29T00:59:03.846Z,57.80
2019-03-29T01:00:03.807Z,58.70
2019-03-29T01:01:03.785Z,58.80
2019-03-29T01:02:03.771Z,58.20
2019-03-29T01:03:03.753Z,59.60
2019-03-29T01:04:03.728Z,59.50
2019-03-29T01:05:03.718Z,57.90
2019-03-29T01:06:03.686Z,59.20
2019-03-29T01:07:04.824Z,57.50
2019-03-29T01:08:08.120Z,57.70
2019-03-29T01:09:04.282Z,56.80
2019-03-29T01:10:03.602Z,56.40
2019-03-29T01:11:03.602Z,56.50
2019-03-29T01:12:03.568Z,56.40
2019-03-29T01:13:03.547Z,56.30
2019-03-29T01:14:03.521Z,55.00
2019-03-29T01:15:03.523Z,55.00
2019-03-29T01:16:03.483Z,53.50
2019-03-29T01:17:03.463Z,54.80
2019-03-29T01:18:03.448Z,53.70
2019-03-29T01:19:04.039Z,56.20
2019-03-29T01:20:03.421Z,52.50
2019-03-29T01:21:03.378Z,52.40
2019-03-29T01:22:03.363Z,52.80
2019-03-29T01:23:03.339Z,51.90
2019-03-29T01:24:03.333Z,51.50
2019-03-29T01:25:03.320Z,52.60
2019-03-29T01:26:03.283Z,53.00
2019-03-29T01:27:03.266Z,52.80
2019-03-29T01:28:03.239Z,52.60
2019-03-29T01:29:03.985Z,53.80
2019-03-29T01:30:03.204Z,53.80
2019-03-29T01:31:03.192Z,53.60
2019-03-29T01:32:03.157Z,53.00
2019-03-29T01:33:04.058Z,55.20
2019-03-29T01:34:03.123Z,55.40
2019-03-29T01:35:03.097Z,56.00
2019-03-29T01:36:03.102Z,57.60
2019-03-29T01:37:03.056Z,55.30
2019-03-29T01:38:03.036Z,52.60
2019-03-29T01:39:03.025Z,55.10
2019-03-29T01:40:03.004Z,53.80
2019-03-29T01:41:02.982Z,52.90
2019-03-29T01:42:02.977Z,52.60
2019-03-29T01:43:02.939Z,54.10
2019-03-29T01:44:02.941Z,53.40
2019-03-29T01:45:02.913Z,53.80
2019-03-29T01:46:04.517Z,54.50
2019-03-29T01:47:03.902Z,52.90
2019-03-29T01:48:03.516Z,53.50
2019-03-29T01:49:02.916Z,54.80
2019-03-29T01:50:02.792Z,54.90
2019-03-29T01:51:02.799Z,56.00
2019-03-29T01:52:02.752Z,56.30
2019-03-29T01:53:02.730Z,55.80
2019-03-29T01:54:04.088Z,54.50
2019-03-29T01:55:02.690Z,55.50
2019-03-29T01:56:02.669Z,53.70
2019-03-29T01:57:02.667Z,53.90
2019-03-29T01:58:02.630Z,54.20
2019-03-29T01:59:02.615Z,53.90
2019-03-29T02:00:02.589Z,53.70
2019-03-29T02:01:05.514Z,54.80
2019-03-29T02:02:02.550Z,55.60
2019-03-29T02:03:02.548Z,54.70
2019-03-29T02:04:05.597Z,55.70
2019-03-29T02:05:02.484Z,54.50
2019-03-29T02:06:03.017Z,55.90
2019-03-29T02:07:02.445Z,56.60
2019-03-29T02:08:02.427Z,57.20
2019-03-29T02:09:02.420Z,57.70
2019-03-29T02:10:02.385Z,56.70
2019-03-29T02:11:02.376Z,57.80
2019-03-29T02:12:02.340Z,57.80
2019-03-29T02:13:02.320Z,57.80
2019-03-29T02:14:02.294Z,56.60
2019-03-29T02:15:02.311Z,56.60
2019-03-29T02:16:02.263Z,58.20
2019-03-29T02:17:02.235Z,57.60
2019-03-29T02:18:02.217Z,60.00
2019-03-29T02:19:02.197Z,58.20
2019-03-29T02:20:02.173Z,59.20
2019-03-29T02:21:02.170Z,58.20
2019-03-29T02:22:02.141Z,60.10
2019-03-29T02:23:02.126Z,59.00
2019-03-29T02:24:02.115Z,58.50
2019-03-29T02:25:02.070Z,57.70
2019-03-29T02:26:02.045Z,57.40
2019-03-29T02:27:02.030Z,57.50
2019-03-29T02:28:02.005Z,57.70
2019-03-29T02:29:01.986Z,56.90
2019-03-29T02:30:04.357Z,58.10
2019-03-29T02:31:01.958Z,59.30
2019-03-29T02:32:01.948Z,58.70
2019-03-29T02:33:01.902Z,60.40
2019-03-29T02:34:01.877Z,61.80
2019-03-29T02:35:01.875Z,60.50
2019-03-29T02:36:01.853Z,60.00
2019-03-29T02:37:02.290Z,57.60
2019-03-29T02:38:01.815Z,58.60
2019-03-29T02:39:02.591Z,57.10
2019-03-29T02:40:01.778Z,56.60
2019-03-29T02:41:01.734Z,55.90
2019-03-29T02:42:01.736Z,55.00
2019-03-29T02:43:02.525Z,60.20
2019-03-29T02:44:01.674Z,56.60
2019-03-29T02:45:03.391Z,55.90
2019-03-29T02:46:01.670Z,58.60
2019-03-29T02:47:01.611Z,58.20
2019-03-29T02:48:03.522Z,55.80
2019-03-29T02:49:01.612Z,55.30
2019-03-29T02:50:02.058Z,55.50
2019-03-29T02:51:01.563Z,54.80
2019-03-29T02:52:01.510Z,53.50
2019-03-29T02:53:01.488Z,52.90
2019-03-29T02:54:01.481Z,53.80
2019-03-29T02:55:01.450Z,53.00
2019-03-29T02:56:01.422Z,54.50
2019-03-29T02:57:01.422Z,54.10
2019-03-29T02:58:01.386Z,53.00
2019-03-29T02:59:01.375Z,53.50
2019-03-29T03:00:01.346Z,53.70
2019-03-29T03:02:43.517Z,52.60
2019-03-29T03:03:43.476Z,52.70
2019-03-29T03:04:43.456Z,51.20
2019-03-29T03:05:43.432Z,52.20
2019-03-29T03:06:43.423Z,50.30
2019-03-29T03:07:43.396Z,50.90
2019-03-29T03:08:43.395Z,49.40
2019-03-29T03:09:43.350Z,48.40
2019-03-29T03:10:43.330Z,49.70
2019-03-29T03:11:43.389Z,49.00
2019-03-29T03:12:43.283Z,48.40
2019-03-29T03:13:43.261Z,48.90
2019-03-29T03:14:44.023Z,49.00
2019-03-29T03:15:43.219Z,48.30
2019-03-29T03:16:43.205Z,48.30
2019-03-29T03:17:43.178Z,48.20
2019-03-29T03:18:43.156Z,47.40
2019-03-29T03:19:43.135Z,46.90
2019-03-29T03:20:43.209Z,46.80
2019-03-29T03:21:43.095Z,46.50
2019-03-29T03:22:43.147Z,45.90
2019-03-29T03:23:43.052Z,46.90
2019-03-29T03:24:43.037Z,47.70
2019-03-29T03:25:44.034Z,48.80
2019-03-29T03:26:42.989Z,49.90
2019-03-29T03:27:43.033Z,50.10
2019-03-29T03:28:42.954Z,49.10
2019-03-29T03:29:42.931Z,49.00
2019-03-29T03:30:42.937Z,49.10
2019-03-29T03:31:42.910Z,46.80
2019-03-29T03:32:42.938Z,45.50
2019-03-29T03:33:42.844Z,46.00
2019-03-29T03:34:42.829Z,45.60
2019-03-29T03:35:42.803Z,45.40
2019-03-29T03:36:42.786Z,47.00
2019-03-29T03:37:42.793Z,45.60
2019-03-29T03:38:42.761Z,45.70
2019-03-29T03:39:42.723Z,44.70
2019-03-29T03:40:42.702Z,44.30
2019-03-29T03:41:42.696Z,44.50
2019-03-29T03:42:42.659Z,44.00
2019-03-29T03:43:42.640Z,43.40
2019-03-29T03:44:42.627Z,43.80
2019-03-29T03:45:42.601Z,43.40
2019-03-29T03:46:42.601Z,43.30
2019-03-29T03:47:42.559Z,43.30
2019-03-29T03:48:42.557Z,42.70
2019-03-29T03:49:42.522Z,42.50
2019-03-29T03:50:42.643Z,42.80
2019-03-29T03:51:42.496Z,42.80
2019-03-29T03:52:42.451Z,42.70
2019-03-29T03:53:42.452Z,43.90
2019-03-29T03:54:42.410Z,41.90
2019-03-29T03:55:42.411Z,42.00
2019-03-29T03:56:42.501Z,43.00
2019-03-29T03:57:42.348Z,42.30
2019-03-29T03:58:42.345Z,42.40
2019-03-29T03:59:42.341Z,41.60
2019-03-29T04:00:42.328Z,42.40
2019-03-29T04:01:42.271Z,41.90
2019-03-29T04:02:42.321Z,42.10
2019-03-29T04:03:42.226Z,41.50
2019-03-29T04:04:42.209Z,41.60
2019-03-29T04:05:42.205Z,43.30
2019-03-29T04:06:42.165Z,43.90
2019-03-29T04:07:42.142Z,44.30
2019-03-29T04:08:42.123Z,44.40
2019-03-29T04:09:50.035Z,44.10
2019-03-29T04:10:42.408Z,43.90
2019-03-29T04:11:42.065Z,44.00
2019-03-29T04:12:42.052Z,45.20
2019-03-29T04:13:42.020Z,43.30
2019-03-29T04:14:42.008Z,43.40
2019-03-29T04:15:41.978Z,44.60
2019-03-29T04:16:41.997Z,43.70
2019-03-29T04:17:41.937Z,44.30
2019-03-29T04:18:41.920Z,45.80
2019-03-29T04:19:41.897Z,44.80
2019-03-29T04:20:41.884Z,45.00
2019-03-29T04:21:41.854Z,43.90
2019-03-29T04:22:41.852Z,44.80
2019-03-29T04:23:41.816Z,43.40
2019-03-29T04:24:41.790Z,44.80
2019-03-29T04:25:41.780Z,45.80
2019-03-29T04:26:41.759Z,45.20
2019-03-29T04:27:41.730Z,44.60
2019-03-29T04:28:41.728Z,44.50
2019-03-29T04:29:41.688Z,44.30
2019-03-29T04:30:41.673Z,44.40
2019-03-29T04:31:41.655Z,43.50
2019-03-29T04:32:41.662Z,45.00
2019-03-29T04:33:41.608Z,44.30
2019-03-29T04:34:41.589Z,44.20
2019-03-29T04:35:41.578Z,44.10
2019-03-29T04:36:41.546Z,43.70
2019-03-29T04:37:41.529Z,44.60
2019-03-29T04:38:41.531Z,45.10
2019-03-29T04:39:41.480Z,45.40
2019-03-29T04:40:41.469Z,44.60
2019-03-29T04:41:41.448Z,44.40
2019-03-29T04:42:41.440Z,44.70
2019-03-29T04:43:41.422Z,44.80
2019-03-29T04:44:42.035Z,43.90
2019-03-29T04:45:41.368Z,46.00
2019-03-29T04:46:41.347Z,44.40
2019-03-29T04:47:41.313Z,44.70
2019-03-29T04:48:41.328Z,45.10
2019-03-29T04:49:41.281Z,44.30
2019-03-29T04:50:41.258Z,44.70
2019-03-29T04:51:41.239Z,47.30
2019-03-29T04:52:41.219Z,44.90
2019-03-29T04:53:41.213Z,44.90
2019-03-29T04:54:41.176Z,45.80
2019-03-29T04:55:41.168Z,48.40
2019-03-29T04:56:41.152Z,46.00
2019-03-29T04:57:41.113Z,45.90
2019-03-29T04:58:41.098Z,47.30
2019-03-29T04:59:41.072Z,48.50
2019-03-29T05:00:41.065Z,49.20
2019-03-29T05:01:41.047Z,51.20
2019-03-29T05:02:41.018Z,48.80
2019-03-29T05:03:40.988Z,51.60
2019-03-29T05:04:40.977Z,49.90
2019-03-29T05:05:40.967Z,49.40
2019-03-29T05:06:40.943Z,47.50
2019-03-29T05:07:41.551Z,47.80
2019-03-29T05:08:40.888Z,49.00
2019-03-29T05:09:40.869Z,48.30
2019-03-29T05:10:40.846Z,48.60
2019-03-29T05:11:40.821Z,46.80
2019-03-29T05:12:40.826Z,46.90
2019-03-29T05:15:23.005Z,44.30
2019-03-29T05:16:22.983Z,44.50
2019-03-29T05:17:22.964Z,44.40
2019-03-29T05:18:22.967Z,43.90
2019-03-29T05:19:22.935Z,43.10
2019-03-29T05:20:22.905Z,44.10
2019-03-29T05:21:22.886Z,43.70
2019-03-29T05:22:22.865Z,42.90
2019-03-29T05:23:22.860Z,42.80
2019-03-29T05:24:22.824Z,44.50
2019-03-29T05:25:22.809Z,42.80
2019-03-29T05:26:25.322Z,43.20
2019-03-29T05:27:22.761Z,43.20
2019-03-29T05:28:22.740Z,42.50
2019-03-29T05:29:22.734Z,40.80
2019-03-29T05:30:22.698Z,41.10
2019-03-29T05:31:22.693Z,40.30
2019-03-29T05:32:22.675Z,39.90
2019-03-29T05:33:22.633Z,40.00
2019-03-29T05:34:22.618Z,38.90
2019-03-29T05:35:22.593Z,39.10
2019-03-29T05:36:22.571Z,38.80
2019-03-29T05:37:22.588Z,37.40
2019-03-29T05:38:22.533Z,37.00
2019-03-29T05:39:22.505Z,37.40
2019-03-29T05:40:34.336Z,37.40
2019-03-29T05:41:22.471Z,37.00
2019-03-29T05:42:22.465Z,37.30
2019-03-29T05:43:22.422Z,36.50
2019-03-29T05:44:22.406Z,36.50
2019-03-29T05:45:22.389Z,35.10
2019-03-29T05:46:22.381Z,35.60
2019-03-29T05:47:22.343Z,34.90
2019-03-29T05:48:22.329Z,34.40
2019-03-29T05:49:22.310Z,35.30
2019-03-29T05:50:22.301Z,34.10
2019-03-29T05:51:22.265Z,34.20
2019-03-29T05:52:22.260Z,34.10
2019-03-29T05:53:22.234Z,34.60
2019-03-29T05:54:22.204Z,33.30
2019-03-29T05:55:32.112Z,33.20
2019-03-29T05:56:22.160Z,34.10
2019-03-29T05:57:22.142Z,33.60
2019-03-29T05:58:22.141Z,32.50
2019-03-29T05:59:22.101Z,32.80
2019-03-29T06:00:22.076Z,32.40
2019-03-29T06:01:22.060Z,32.90
2019-03-29T06:02:22.042Z,33.00
2019-03-29T06:03:22.090Z,32.80
2019-03-29T06:04:21.997Z,32.20
2019-03-29T06:05:21.978Z,31.60
2019-03-29T06:06:22.026Z,32.50
2019-03-29T06:07:21.934Z,31.80
2019-03-29T06:08:21.919Z,31.80
2019-03-29T06:09:21.923Z,31.40
2019-03-29T06:10:21.871Z,31.40
2019-03-29T06:11:21.850Z,31.00
2019-03-29T06:12:21.844Z,31.30
2019-03-29T06:13:21.812Z,30.80
2019-03-29T06:14:21.816Z,31.00
2019-03-29T06:15:21.773Z,30.60
2019-03-29T06:16:21.750Z,30.70
2019-03-29T06:17:21.730Z,30.10
2019-03-29T06:18:21.711Z,30.50
2019-03-29T06:19:21.691Z,30.70
2019-03-29T06:20:21.696Z,30.20
2019-03-29T06:21:23.048Z,30.40
2019-03-29T06:22:21.628Z,30.70
2019-03-29T06:23:21.609Z,30.70
2019-03-29T06:24:21.591Z,30.20
2019-03-29T06:25:21.586Z,30.70
2019-03-29T06:26:21.554Z,30.40
2019-03-29T06:27:21.527Z,29.70
2019-03-29T06:28:21.508Z,30.00
2019-03-29T06:29:21.483Z,29.50
2019-03-29T06:30:21.468Z,30.40
2019-03-29T06:31:21.469Z,29.40
2019-03-29T06:32:21.430Z,29.60
2019-03-29T06:33:21.400Z,30.60
2019-03-29T06:34:21.387Z,30.00
2019-03-29T06:35:21.384Z,29.40
2019-03-29T06:36:21.361Z,31.10
2019-03-29T06:37:21.327Z,29.70
2019-03-29T06:38:21.316Z,29.80
2019-03-29T06:39:21.476Z,29.50
2019-03-29T06:40:21.264Z,29.60
2019-03-29T06:41:21.241Z,29.40
2019-03-29T06:42:21.220Z,28.80
2019-03-29T06:43:21.201Z,29.00
2019-03-29T06:44:21.199Z,28.90
2019-03-29T06:45:21.160Z,28.50
2019-03-29T06:46:21.140Z,28.90
2019-03-29T06:47:21.116Z,29.40
2019-03-29T06:48:21.102Z,28.50
2019-03-29T06:49:21.079Z,27.90
2019-03-29T06:50:21.073Z,27.20
2019-03-29T06:51:21.041Z,27.60
2019-03-29T06:52:21.045Z,26.00
2019-03-29T06:53:21.021Z,26.40
2019-03-29T06:54:21.015Z,25.20
2019-03-29T06:55:20.963Z,26.50
2019-03-29T06:56:20.941Z,25.60
2019-03-29T06:57:21.066Z,25.60
2019-03-29T06:58:20.903Z,25.10
2019-03-29T06:59:20.876Z,24.50
2019-03-29T07:00:20.870Z,24.00
2019-03-29T07:01:21.563Z,25.20
2019-03-29T07:02:20.816Z,25.10
2019-03-29T07:03:20.793Z,24.40
2019-03-29T07:04:20.779Z,24.50
2019-03-29T07:05:20.751Z,25.10
2019-03-29T07:06:20.754Z,26.60
2019-03-29T07:07:20.715Z,27.00
2019-03-29T07:08:20.707Z,26.50
2019-03-29T07:09:20.677Z,26.70
2019-03-29T07:10:20.658Z,26.80
2019-03-29T07:11:20.641Z,27.20
2019-03-29T07:12:20.641Z,28.00
2019-03-29T07:13:20.607Z,26.60
2019-03-29T07:14:20.591Z,28.60
2019-03-29T07:15:20.553Z,27.70
2019-03-29T07:16:20.541Z,27.80
2019-03-29T07:17:20.520Z,27.90
2019-03-29T07:18:20.497Z,26.90
2019-03-29T07:19:20.492Z,26.20
2019-03-29T07:20:20.472Z,26.00
2019-03-29T07:21:21.791Z,25.10
2019-03-29T07:22:20.415Z,25.20
2019-03-29T07:23:20.397Z,24.70
2019-03-29T07:24:20.380Z,24.60
2019-03-29T07:25:20.378Z,24.30
2019-03-29T07:26:20.338Z,24.60
2019-03-29T07:27:20.336Z,24.10
2019-03-29T07:28:20.301Z,23.30
2019-03-29T07:29:20.298Z,24.00
2019-03-29T07:30:20.286Z,23.60
2019-03-29T07:31:20.240Z,22.90
2019-03-29T07:32:20.217Z,22.10
2019-03-29T07:33:20.196Z,22.50
2019-03-29T07:34:20.195Z,22.00
2019-03-29T07:35:20.176Z,22.00
2019-03-29T07:36:20.139Z,21.90
2019-03-29T07:37:20.126Z,21.50
2019-03-29T07:38:20.103Z,22.10
2019-03-29T07:39:20.081Z,22.40
2019-03-29T07:40:20.061Z,21.20
2019-03-29T07:41:30.960Z,21.00
2019-03-29T07:42:20.024Z,21.70
2019-03-29T07:43:20.010Z,21.40
2019-03-29T07:44:19.981Z,21.60
2019-03-29T07:45:19.963Z,21.40
2019-03-29T07:46:19.970Z,21.30
2019-03-29T07:47:19.923Z,21.80
2019-03-29T07:48:19.928Z,22.50
2019-03-29T07:49:19.886Z,22.80
2019-03-29T07:50:19.865Z,23.00
2019-03-29T07:51:19.854Z,24.10
2019-03-29T07:52:19.825Z,24.80
2019-03-29T07:53:19.825Z,25.00
2019-03-29T07:54:19.785Z,24.80
2019-03-29T07:55:19.768Z,24.30
2019-03-29T07:56:19.810Z,25.50
2019-03-29T07:57:19.729Z,25.90
2019-03-29T07:58:19.709Z,22.20
2019-03-29T07:59:19.711Z,22.70
2019-03-29T08:00:20.576Z,22.10
2019-03-29T08:01:19.652Z,23.10
2019-03-29T08:02:19.686Z,22.10
2019-03-29T08:03:21.348Z,21.90
2019-03-29T08:04:21.666Z,21.60
2019-03-29T08:05:19.588Z,22.00
2019-03-29T08:06:19.561Z,21.70
2019-03-29T08:07:27.060Z,21.80
2019-03-29T08:08:24.248Z,20.90
2019-03-29T08:09:22.740Z,22.00
2019-03-29T08:10:27.452Z,21.80
2019-03-29T08:11:26.108Z,21.50
2019-03-29T08:12:20.125Z,21.70
2019-03-29T08:13:19.421Z,20.60
2019-03-29T08:14:19.401Z,20.90
2019-03-29T08:15:19.385Z,20.70
2019-03-29T08:16:19.412Z,20.90
2019-03-29T08:17:19.339Z,20.40
2019-03-29T08:18:19.325Z,19.10
2019-03-29T08:19:19.306Z,19.80
2019-03-29T08:20:43.878Z,19.70
2019-03-29T08:21:19.264Z,17.70
2019-03-29T08:22:19.271Z,18.30
2019-03-29T08:23:19.234Z,17.80
2019-03-29T08:24:19.207Z,17.40
2019-03-29T08:25:19.192Z,17.30
2019-03-29T08:26:19.180Z,17.20
2019-03-29T08:27:19.190Z,17.20
2019-03-29T08:28:19.152Z,17.00
2019-03-29T08:29:19.165Z,17.10
2019-03-29T08:30:19.097Z,16.40
2019-03-29T08:31:19.093Z,16.80
2019-03-29T08:32:19.061Z,16.80
2019-03-29T08:33:19.043Z,17.00
2019-03-29T08:34:19.040Z,17.00
2019-03-29T08:35:19.013Z,16.90
2019-03-29T08:36:18.991Z,16.80
2019-03-29T08:37:18.983Z,17.40
2019-03-29T08:38:18.951Z,16.20
2019-03-29T08:39:27.947Z,16.80
2019-03-29T08:40:18.908Z,16.60
2019-03-29T08:41:18.898Z,16.00
2019-03-29T08:42:19.036Z,16.20
2019-03-29T08:43:19.647Z,16.20
2019-03-29T08:44:18.859Z,16.20
2019-03-29T08:45:18.815Z,16.30
2019-03-29T08:46:18.803Z,16.70
2019-03-29T08:47:18.799Z,16.60
2019-03-29T08:48:18.759Z,16.90
2019-03-29T08:49:18.749Z,17.40
2019-03-29T08:50:18.792Z,16.50
2019-03-29T08:51:18.710Z,16.60
2019-03-29T08:52:18.693Z,15.70
2019-03-29T08:53:18.674Z,16.20
2019-03-29T08:54:18.656Z,15.50
2019-03-29T08:55:18.636Z,15.90
2019-03-29T08:56:18.647Z,16.30
2019-03-29T08:57:18.606Z,16.10
2019-03-29T08:58:18.584Z,16.50
2019-03-29T08:59:18.567Z,16.00
2019-03-29T09:00:18.547Z,15.50
2019-03-29T09:01:19.551Z,14.80
2019-03-29T09:02:18.543Z,15.20
2019-03-29T09:03:18.494Z,15.20
2019-03-29T09:04:21.593Z,15.40
2019-03-29T09:05:18.477Z,14.90
2019-03-29T09:06:18.443Z,14.80
2019-03-29T09:07:18.416Z,15.80
2019-03-29T09:08:19.121Z,15.00
2019-03-29T09:09:18.390Z,14.40
2019-03-29T09:10:18.389Z,14.80
2019-03-29T09:11:18.357Z,16.40
2019-03-29T09:12:18.336Z,14.70
2019-03-29T09:13:18.317Z,14.70
2019-03-29T09:14:18.297Z,14.80
2019-03-29T09:15:18.303Z,14.80
2019-03-29T09:16:18.272Z,15.00
2019-03-29T09:17:18.246Z,15.00
2019-03-29T09:18:18.229Z,15.20
2019-03-29T09:19:18.222Z,15.40
2019-03-29T09:20:18.196Z,15.20
2019-03-29T09:21:18.215Z,15.60
2019-03-29T09:24:00.055Z,15.60
2019-03-29T09:25:00.043Z,15.40
2019-03-29T09:26:00.019Z,15.80
2019-03-29T09:27:00.188Z,15.60
2019-03-29T09:27:59.990Z,15.70
2019-03-29T09:28:59.974Z,16.00
2019-03-29T09:29:59.959Z,15.60
2019-03-29T09:30:59.950Z,15.30
2019-03-29T09:32:00.024Z,16.30
2019-03-29T09:32:59.938Z,15.40
2019-03-29T09:33:59.905Z,15.80
2019-03-29T09:34:59.889Z,16.40
2019-03-29T09:35:59.875Z,16.40
2019-03-29T09:37:00.222Z,16.60
2019-03-29T09:37:59.852Z,16.20
2019-03-29T09:38:59.857Z,16.20
2019-03-29T09:39:59.824Z,16.40
2019-03-29T09:40:59.815Z,16.00
2019-03-29T09:41:59.807Z,16.00
2019-03-29T09:43:07.054Z,15.70
2019-03-29T09:43:59.773Z,16.10
2019-03-29T09:44:59.781Z,16.00
2019-03-29T09:46:03.160Z,15.80
2019-03-29T09:46:59.740Z,15.70
2019-03-29T09:47:59.743Z,15.60
2019-03-29T09:48:59.738Z,16.10
2019-03-29T09:49:59.732Z,15.70
2019-03-29T09:50:59.714Z,15.60
2019-03-29T09:51:59.750Z,15.20
2019-03-29T09:53:01.413Z,15.40
2019-03-29T09:53:59.684Z,15.30
2019-03-29T09:54:59.679Z,14.70
2019-03-29T09:55:59.663Z,14.60
2019-03-29T09:56:59.639Z,14.70
2019-03-29T09:57:59.641Z,14.70
2019-03-29T09:58:59.625Z,14.90
2019-03-29T09:59:59.629Z,14.90
2019-03-29T10:00:59.599Z,14.60
2019-03-29T10:01:59.592Z,15.00
2019-03-29T10:02:59.583Z,14.50
2019-03-29T10:03:59.573Z,14.80
2019-03-29T10:04:59.584Z,14.10
2019-03-29T10:05:59.610Z,14.10
2019-03-29T10:06:59.548Z,14.10
2019-03-29T10:07:59.536Z,13.10
2019-03-29T10:08:59.540Z,13.90
2019-03-29T10:09:59.549Z,14.30
2019-03-29T10:10:59.518Z,14.20
2019-03-29T10:11:59.506Z,14.60
2019-03-29T10:12:59.498Z,14.20
2019-03-29T10:13:59.494Z,13.70
2019-03-29T10:14:59.486Z,13.80
2019-03-29T10:15:59.499Z,14.10
2019-03-29T10:16:59.491Z,13.80
2019-03-29T10:17:59.474Z,14.10
2019-03-29T10:18:59.451Z,14.00
2019-03-29T10:19:59.443Z,13.50
2019-03-29T10:20:59.439Z,12.80
2019-03-29T10:21:59.424Z,12.60
2019-03-29T10:22:59.442Z,12.40
2019-03-29T10:23:59.412Z,12.30
2019-03-29T10:25:02.062Z,12.30
2019-03-29T10:25:59.408Z,11.80
2019-03-29T10:26:59.387Z,11.10
2019-03-29T10:27:59.379Z,12.40
2019-03-29T10:28:59.405Z,11.30
2019-03-29T10:29:59.367Z,11.80
2019-03-29T10:30:59.358Z,11.60
2019-03-29T10:31:59.357Z,10.60
2019-03-29T10:32:59.349Z,11.90
2019-03-29T10:33:59.431Z,11.60
2019-03-29T10:34:59.367Z,10.50
2019-03-29T10:35:59.359Z,9.20
2019-03-29T10:36:59.329Z,10.30
2019-03-29T10:37:59.321Z,9.70
2019-03-29T10:38:59.316Z,10.40
2019-03-29T10:39:59.302Z,9.30
2019-03-29T10:40:59.301Z,9.30
2019-03-29T10:41:59.390Z,9.80
2019-03-29T10:42:59.288Z,10.70
2019-03-29T10:43:59.282Z,9.70
2019-03-29T10:44:59.281Z,9.90
2019-03-29T10:45:59.268Z,9.80
2019-03-29T10:46:59.256Z,10.00
2019-03-29T10:47:59.281Z,9.80
2019-03-29T10:48:59.253Z,10.50
2019-03-29T10:49:59.244Z,10.00
2019-03-29T10:50:59.247Z,10.50
2019-03-29T10:51:59.233Z,10.00
2019-03-29T10:52:59.227Z,9.80
2019-03-29T10:53:59.244Z,9.40
2019-03-29T10:54:59.216Z,9.20
2019-03-29T10:55:59.214Z,9.70
2019-03-29T10:56:59.205Z,9.90
2019-03-29T10:57:59.192Z,9.50
2019-03-29T10:58:59.188Z,9.40
2019-03-29T10:59:59.202Z,9.30
2019-03-29T11:00:59.174Z,9.70
2019-03-29T11:01:59.170Z,10.00
2019-03-29T11:02:59.164Z,9.50
2019-03-29T11:03:59.158Z,10.50
2019-03-29T11:04:59.166Z,10.40
2019-03-29T11:05:59.185Z,9.90
2019-03-29T11:06:59.138Z,9.70
2019-03-29T11:07:59.163Z,10.20
2019-03-29T11:08:59.138Z,9.70
2019-03-29T11:09:59.161Z,9.40
2019-03-29T11:10:59.128Z,9.20
2019-03-29T11:11:59.120Z,9.80
2019-03-29T11:13:11.739Z,9.80
2019-03-29T11:13:59.126Z,9.90
2019-03-29T11:14:59.104Z,9.60
2019-03-29T11:15:59.105Z,9.50
2019-03-29T11:16:59.096Z,9.70
2019-03-29T11:17:59.095Z,9.10
2019-03-29T11:18:59.106Z,9.40
2019-03-29T11:19:59.081Z,7.90
2019-03-29T11:20:59.105Z,8.10
2019-03-29T11:21:59.068Z,8.20
2019-03-29T11:22:59.065Z,8.10
2019-03-29T11:23:59.064Z,7.30
2019-03-29T11:24:59.062Z,7.10
2019-03-29T11:25:59.056Z,7.80
2019-03-29T11:26:59.083Z,7.60
2019-03-29T11:27:59.059Z,6.40
2019-03-29T11:28:59.043Z,6.20
2019-03-29T11:29:59.034Z,5.90
2019-03-29T11:30:59.039Z,5.20
2019-03-29T11:31:59.030Z,4.80
2019-03-29T11:32:59.044Z,5.20
2019-03-29T11:33:59.039Z,5.60
2019-03-29T11:34:59.018Z,6.00
2019-03-29T11:35:59.013Z,6.40
2019-03-29T11:36:59.013Z,6.10
2019-03-29T11:37:59.007Z,5.70
2019-03-29T11:38:59.023Z,6.30
2019-03-29T11:39:59.000Z,7.20
2019-03-29T11:40:58.999Z,7.20
2019-03-29T11:41:59.007Z,6.70
2019-03-29T11:42:58.985Z,6.10
2019-03-29T11:43:58.987Z,7.00
2019-03-29T11:45:04.250Z,8.10
2019-03-29T11:45:58.977Z,8.20
2019-03-29T11:46:58.975Z,7.60
2019-03-29T11:48:08.187Z,7.60
2019-03-29T11:48:58.968Z,8.20
2019-03-29T11:49:58.967Z,8.00
2019-03-29T11:50:58.979Z,8.40
2019-03-29T11:51:58.955Z,8.00
2019-03-29T11:52:58.952Z,7.90
2019-03-29T11:53:58.949Z,7.80
2019-03-29T11:54:58.964Z,8.00
2019-03-29T11:55:58.943Z,7.70
2019-03-29T11:56:58.943Z,7.70
2019-03-29T11:57:58.954Z,7.90
2019-03-29T11:58:58.931Z,7.90
2019-03-29T11:59:58.956Z,7.60
2019-03-29T12:00:58.948Z,7.90
2019-03-29T12:01:58.942Z,7.80
2019-03-29T12:02:58.922Z,7.70
2019-03-29T12:03:58.943Z,7.70
2019-03-29T12:04:58.917Z,8.10
2019-03-29T12:05:58.914Z,7.90
2019-03-29T12:06:58.957Z,7.90
2019-03-29T12:07:58.904Z,8.00
2019-03-29T12:08:58.925Z,7.30
2019-03-29T12:09:58.901Z,5.70
2019-03-29T12:10:58.896Z,6.20
2019-03-29T12:11:58.893Z,6.10
2019-03-29T12:12:58.905Z,6.50
2019-03-29T12:13:58.881Z,7.30
2019-03-29T12:14:58.882Z,7.80
2019-03-29T12:15:58.881Z,8.60
2019-03-29T12:16:58.884Z,8.50
2019-03-29T12:17:58.885Z,9.00
2019-03-29T12:18:58.870Z,9.60
2019-03-29T12:19:58.868Z,9.50
2019-03-29T12:20:58.890Z,8.70
2019-03-29T12:21:58.865Z,8.70
2019-03-29T12:22:58.860Z,9.00
2019-03-29T12:23:58.867Z,7.60
2019-03-29T12:24:58.873Z,7.40
2019-03-29T12:25:58.852Z,7.00
2019-03-29T12:26:58.851Z,7.00
2019-03-29T12:27:58.844Z,6.10
2019-03-29T12:28:58.836Z,5.80
2019-03-29T12:29:58.854Z,5.60
2019-03-29T12:30:58.849Z,6.20
2019-03-29T12:31:58.838Z,6.20
2019-03-29T12:32:58.830Z,5.60
2019-03-29T12:33:58.830Z,5.40
2019-03-29T12:34:58.817Z,5.50
2019-03-29T12:35:58.843Z,5.70
2019-03-29T12:36:58.834Z,5.10
2019-03-29T12:37:58.822Z,5.00
2019-03-29T12:38:58.804Z,4.90
2019-03-29T12:39:58.820Z,4.90
2019-03-29T12:40:58.804Z,5.10
2019-03-29T12:41:58.889Z,5.30
2019-03-29T12:42:58.798Z,5.40
2019-03-29T12:43:58.793Z,5.80
2019-03-29T12:44:58.788Z,5.70
2019-03-29T12:45:58.800Z,5.60
2019-03-29T12:46:58.780Z,5.40
2019-03-29T12:47:58.793Z,6.20
2019-03-29T12:48:58.793Z,6.00
2019-03-29T12:49:58.773Z,5.60
2019-03-29T12:50:58.768Z,6.00
2019-03-29T12:51:58.771Z,6.10
2019-03-29T12:52:58.776Z,5.70
2019-03-29T12:53:58.757Z,6.10
2019-03-29T12:54:58.760Z,6.10
2019-03-29T12:55:58.749Z,6.20
2019-03-29T12:56:58.746Z,6.10
2019-03-29T12:57:58.741Z,5.70
2019-03-29T12:58:58.757Z,6.20
2019-03-29T12:59:58.765Z,6.40
2019-03-29T13:00:58.738Z,6.80
2019-03-29T13:01:58.733Z,6.20
2019-03-29T13:02:58.738Z,6.10
2019-03-29T13:03:58.721Z,6.50